createdAt,value
2023-02-13T00:04:28.381Z,12.97
2023-02-13T00:09:32.580Z,13.97
2023-02-13T00:14:36.560Z,12.63
2023-02-13T00:19:39.922Z,14.07
2023-02-13T00:24:44.117Z,11.77
2023-02-13T00:29:46.994Z,13.13
2023-02-13T00:34:49.856Z,12.93
2023-02-13T00:39:54.295Z,12.20
2023-02-13T00:44:58.794Z,11.90
2023-02-13T00:50:01.613Z,14.67
2023-02-13T00:55:06.431Z,12.87
2023-02-13T01:00:10.298Z,11.93
2023-02-13T01:05:13.296Z,13.30
2023-02-13T01:10:17.850Z,14.93
2023-02-13T01:15:20.882Z,12.67
2023-02-13T01:20:25.640Z,13.17
2023-02-13T01:25:29.882Z,12.00
2023-02-13T01:30:34.057Z,12.80
2023-02-13T01:35:36.889Z,11.83
2023-02-13T01:40:47.326Z,12.20
2023-02-13T01:45:52.455Z,12.27
2023-02-13T01:50:59.888Z,12.33
2023-02-13T01:56:07.061Z,13.43
2023-02-13T02:01:10.327Z,11.17
2023-02-13T02:06:16.264Z,10.97
2023-02-13T02:11:27.155Z,11.23
2023-02-13T02:16:30.467Z,11.30
2023-02-13T02:21:48.889Z,11.60
2023-02-13T02:27:12.834Z,11.50
2023-02-13T02:32:24.537Z,10.60
2023-02-13T02:37:41.133Z,11.03
2023-02-13T02:42:49.676Z,12.83
2023-02-13T02:48:13.513Z,13.33
2023-02-13T02:53:30.155Z,12.30
2023-02-13T02:58:54.780Z,12.17
2023-02-13T03:04:17.641Z,11.43
2023-02-13T03:09:42.360Z,12.20
2023-02-13T03:14:45.363Z,11.90
2023-02-13T03:20:16.621Z,11.63
2023-02-13T03:25:30.291Z,12.67
2023-02-13T03:30:41.917Z,11.73
2023-02-13T03:36:08.219Z,13.60
2023-02-13T03:41:21.530Z,14.93
2023-02-13T03:46:25.891Z,14.23
2023-02-13T03:51:32.887Z,16.03
2023-02-13T03:56:53.804Z,14.73
2023-02-13T04:02:02.144Z,15.83
2023-02-13T04:07:08.568Z,16.60
2023-02-13T04:12:17.005Z,17.53
2023-02-13T04:17:24.817Z,15.80
2023-02-13T04:22:29.208Z,16.63
2023-02-13T04:27:32.057Z,15.67
2023-02-13T04:32:34.884Z,16.83
2023-02-13T04:37:39.098Z,16.30
2023-02-13T04:42:41.937Z,12.83
2023-02-13T04:47:45.254Z,14.57
2023-02-13T04:52:51.407Z,14.00
2023-02-13T04:57:54.546Z,14.50
2023-02-13T05:03:02.261Z,14.10
2023-02-13T05:08:06.827Z,15.10
2023-02-13T05:13:09.740Z,13.13
2023-02-13T05:18:12.570Z,12.80
2023-02-13T05:23:26.287Z,13.90
2023-02-13T05:28:46.468Z,13.80
2023-02-13T05:33:49.382Z,13.00
2023-02-13T05:38:53.591Z,11.90
2023-02-13T05:43:56.440Z,12.47
2023-02-13T05:48:59.391Z,14.10
2023-02-13T05:54:03.970Z,13.43
2023-02-13T05:59:06.973Z,11.60
2023-02-13T06:04:09.868Z,15.07
2023-02-13T06:09:14.208Z,12.53
2023-02-13T06:14:17.094Z,12.27
2023-02-13T06:19:19.948Z,11.90
2023-02-13T06:24:24.134Z,12.87
2023-02-13T06:29:26.930Z,11.43
2023-02-13T06:34:29.891Z,11.73
2023-02-13T06:39:34.143Z,12.60
2023-02-13T06:44:36.994Z,12.07
2023-02-13T06:49:39.894Z,11.83
2023-02-13T06:54:48.040Z,11.70
2023-02-13T06:59:51.237Z,12.60
2023-02-13T07:04:54.098Z,12.63
2023-02-13T07:09:58.226Z,11.83
2023-02-13T07:15:01.115Z,12.30
2023-02-13T07:20:05.082Z,11.87
2023-02-13T07:25:09.852Z,10.20
2023-02-13T07:30:13.325Z,11.63
2023-02-13T07:35:16.356Z,12.17
2023-02-13T07:40:20.851Z,12.27
2023-02-13T07:45:23.817Z,12.73
2023-02-13T07:50:27.055Z,11.10
2023-02-13T07:55:32.669Z,11.33
2023-02-13T08:00:35.552Z,11.00
2023-02-13T08:05:38.769Z,9.80
2023-02-13T08:11:00.272Z,10.27
2023-02-13T08:16:03.149Z,10.53
2023-02-13T08:21:06.421Z,10.10
2023-02-13T08:26:11.175Z,10.90
2023-02-13T08:31:14.546Z,11.40
2023-02-13T08:36:19.032Z,11.43
2023-02-13T08:41:23.410Z,10.63
2023-02-13T08:46:26.399Z,10.87
2023-02-13T08:56:57.748Z,10.60
2023-02-13T09:02:00.720Z,9.37
2023-02-13T09:07:03.667Z,10.50
2023-02-13T09:12:08.183Z,10.77
2023-02-13T09:17:11.111Z,10.30
2023-02-13T09:22:15.862Z,9.53
2023-02-13T09:27:20.036Z,9.00
2023-02-13T09:32:23.086Z,10.70
2023-02-13T09:37:26.022Z,10.00
2023-02-13T09:42:31.782Z,10.37
2023-02-13T09:47:37.711Z,9.43
2023-02-13T09:52:41.312Z,10.93
2023-02-13T09:57:49.768Z,10.63
2023-02-13T10:03:15.419Z,9.63
2023-02-13T10:08:30.409Z,9.60
2023-02-13T10:13:49.302Z,13.00
2023-02-13T10:18:55.711Z,10.83
2023-02-13T10:24:04.038Z,10.80
2023-02-13T10:29:29.620Z,11.60
2023-02-13T10:34:36.476Z,10.60
2023-02-13T10:39:39.256Z,13.53
2023-02-13T10:44:50.462Z,12.97
2023-02-13T10:50:04.985Z,11.47
2023-02-13T10:55:20.541Z,10.70
2023-02-13T11:00:30.800Z,11.33
2023-02-13T11:05:37.239Z,9.70
2023-02-13T11:10:41.347Z,10.53
2023-02-13T11:15:58.392Z,11.20
2023-02-13T11:21:04.336Z,11.93
2023-02-13T11:26:09.931Z,10.67
2023-02-13T11:31:21.012Z,10.67
2023-02-13T11:36:27.616Z,9.77
2023-02-13T11:41:31.452Z,10.17
2023-02-13T11:46:48.294Z,11.67
2023-02-13T11:51:53.596Z,11.43
2023-02-13T11:57:06.254Z,10.33
2023-02-13T12:02:19.343Z,11.70
2023-02-13T12:07:25.120Z,9.37
2023-02-13T12:12:33.286Z,12.27
2023-02-13T12:17:37.727Z,10.77
2023-02-13T12:22:49.444Z,11.47
2023-02-13T12:28:00.743Z,11.17
2023-02-13T12:33:18.026Z,9.47
2023-02-13T12:38:32.396Z,12.33
2023-02-13T12:44:14.593Z,10.30
2023-02-13T12:49:41.193Z,10.67
2023-02-13T12:54:52.416Z,11.43
2023-02-13T13:00:13.037Z,10.13
2023-02-13T13:05:30.060Z,11.70
2023-02-13T13:10:46.783Z,11.47
2023-02-13T13:15:55.344Z,11.33
2023-02-13T13:21:20.378Z,11.40
2023-02-13T13:26:32.082Z,10.50
2023-02-13T13:31:37.081Z,13.53
2023-02-13T13:36:45.233Z,12.30
2023-02-13T13:41:54.425Z,13.50
2023-02-13T13:47:00.690Z,13.63
2023-02-13T13:52:25.175Z,13.53
2023-02-13T13:57:28.350Z,13.30
2023-02-13T14:02:40.892Z,12.07
2023-02-13T14:07:45.806Z,13.43
2023-02-13T14:12:50.303Z,12.30
2023-02-13T14:17:54.882Z,11.83
2023-02-13T14:23:08.261Z,11.73
2023-02-13T14:28:22.186Z,11.67
2023-02-13T14:33:27.990Z,11.63
2023-02-13T14:38:32.662Z,12.47
2023-02-13T14:43:39.036Z,12.53
2023-02-13T14:48:46.195Z,12.37
2023-02-13T14:53:53.043Z,11.33
2023-02-13T14:59:00.279Z,11.57
2023-02-13T15:04:08.685Z,11.13
2023-02-13T15:09:22.651Z,13.70
2023-02-13T15:14:31.445Z,11.80
2023-02-13T15:19:35.992Z,11.53
2023-02-13T15:24:46.524Z,11.23
2023-02-13T15:29:57.485Z,11.87
2023-02-13T15:35:00.814Z,11.87
2023-02-13T15:40:20.857Z,14.53
2023-02-13T15:45:24.916Z,12.87
2023-02-13T15:50:31.192Z,12.30
2023-02-13T15:55:36.559Z,13.73
2023-02-13T16:00:42.491Z,13.67
2023-02-13T16:05:46.772Z,12.93
2023-02-13T16:10:51.160Z,14.13
2023-02-13T16:15:54.338Z,15.93
2023-02-13T16:20:57.711Z,14.33
2023-02-13T16:26:05.381Z,15.53
2023-02-13T16:31:08.654Z,13.93
2023-02-13T16:36:28.921Z,13.83
2023-02-13T16:41:34.118Z,13.97
2023-02-13T16:46:37.807Z,15.70
2023-02-13T16:51:42.579Z,16.03
2023-02-13T16:56:48.623Z,14.87
2023-02-13T17:02:04.468Z,15.47
2023-02-13T17:07:13.509Z,15.40
2023-02-13T17:12:19.601Z,15.70
2023-02-13T17:17:23.809Z,16.37
2023-02-13T17:22:34.227Z,15.70
2023-02-13T17:27:38.424Z,17.30
2023-02-13T17:32:41.256Z,16.70
2023-02-13T17:37:45.498Z,18.03
2023-02-13T17:42:53.289Z,17.00
2023-02-13T17:47:59.257Z,15.67
2023-02-13T17:53:03.556Z,15.13
2023-02-13T17:58:07.690Z,16.13
2023-02-13T18:03:12.422Z,17.53
2023-02-13T18:08:15.443Z,16.30
2023-02-13T18:13:19.647Z,15.03
2023-02-13T18:18:22.442Z,18.33
2023-02-13T18:23:25.288Z,21.00
2023-02-13T18:28:29.748Z,16.20
2023-02-13T18:33:32.617Z,17.97
2023-02-13T18:38:35.516Z,18.47
2023-02-13T18:43:39.709Z,21.73
2023-02-13T18:48:42.588Z,20.73
2023-02-13T18:53:45.623Z,19.53
2023-02-13T18:58:49.852Z,16.73
2023-02-13T19:03:53.566Z,17.67
2023-02-13T19:08:57.067Z,20.57
2023-02-13T19:14:02.473Z,18.13
2023-02-13T19:19:07.136Z,17.20
2023-02-13T19:24:11.987Z,17.80
2023-02-13T19:29:16.288Z,17.10
2023-02-13T19:34:19.164Z,19.37
2023-02-13T19:39:21.975Z,20.17
2023-02-13T19:44:26.247Z,18.13
2023-02-13T19:49:29.090Z,17.23
2023-02-13T19:54:32.174Z,16.03
2023-02-13T19:59:36.388Z,19.67
2023-02-13T20:04:39.997Z,18.87
2023-02-13T20:09:42.923Z,17.97
2023-02-13T20:14:47.169Z,21.50
2023-02-13T20:19:51.358Z,18.97
2023-02-13T20:24:54.104Z,20.80
2023-02-13T20:30:06.399Z,20.30
2023-02-13T20:35:10.039Z,19.73
2023-02-13T20:40:13.866Z,19.33
2023-02-13T20:45:18.144Z,21.73
2023-02-13T20:50:21.405Z,20.60
2023-02-13T20:55:24.220Z,18.70
2023-02-13T21:00:28.510Z,20.37
2023-02-13T21:05:31.293Z,21.03
2023-02-13T21:10:34.191Z,20.50
2023-02-13T21:15:38.575Z,20.20
2023-02-13T21:20:41.451Z,18.43
2023-02-13T21:25:44.341Z,17.90
2023-02-13T21:30:48.560Z,20.57
2023-02-13T21:35:51.538Z,19.80
2023-02-13T21:40:54.305Z,18.13
2023-02-13T21:46:06.826Z,17.20
2023-02-13T21:51:11.019Z,21.43
2023-02-13T21:56:15.584Z,19.70
2023-02-13T22:01:26.565Z,18.40
2023-02-13T22:06:31.232Z,19.57
2023-02-13T22:11:34.685Z,20.43
2023-02-13T22:16:39.796Z,18.90
2023-02-13T22:21:42.949Z,20.43
2023-02-13T22:26:46.463Z,19.23
2023-02-13T22:31:50.841Z,20.67
2023-02-13T22:36:53.734Z,19.23
2023-02-13T22:41:56.784Z,17.43
2023-02-13T22:47:00.876Z,18.27
2023-02-13T22:52:03.933Z,16.87
2023-02-13T22:57:06.799Z,18.57
2023-02-13T23:02:11.368Z,18.33
2023-02-13T23:07:15.157Z,19.10
2023-02-13T23:12:35.323Z,18.80
2023-02-13T23:17:58.037Z,18.83
2023-02-13T23:23:01.075Z,20.23
2023-02-13T23:28:04.889Z,22.10
2023-02-13T23:33:09.324Z,19.57
2023-02-13T23:38:12.155Z,20.53
2023-02-13T23:43:14.907Z,17.77
2023-02-13T23:48:18.989Z,20.13
2023-02-13T23:53:21.800Z,17.87
2023-02-13T23:58:24.615Z,17.30
